allevents.in alexa rank chart, allevents.in alexa rank daily changes

allevents.in alexa rank chart, allevents.in alexa rank daily changes

allevents.in
Actual rank:
16 352

RANK HISTORY

Date Rank Diff
2019/01/23 16 352 -3 730
2019/01/22 20 082 +3 491
2019/01/21 16 591 -2 350
2019/01/20 18 941 +5 509
2019/01/19 13 432 -2 093
2019/01/18 15 525 +47
2019/01/17 15 478 -3 295
2019/01/16 18 773 +930
2019/01/15 17 843 +3 156
2019/01/14 14 687 +896
2019/01/13 13 791 -2 839
2019/01/12 16 630 -611
2019/01/11 17 241 -1 463
2019/01/10 18 704 +1 366
2019/01/09 17 338 -2 685
2019/01/08 20 023 +726
2019/01/07 19 297 +3 837
2019/01/06 15 460 +1 475
2019/01/05 13 985 +405
2019/01/04 13 580 -2 448
2019/01/03 16 028 +9 655
2019/01/02 6 373 -3 642
2019/01/01 10 015 -2 961
2018/12/31 12 976 -119
2018/12/30 13 095 +1 967
2018/12/29 11 128 -1 804
2018/12/28 12 932 -764
2018/12/27 13 696 +1 765
2018/12/26 11 931 -4 006
2018/12/25 15 937 -391
2018/12/24 16 328 +1 524
2018/12/23 14 804 +316
2018/12/22 14 488 -2 092
2018/12/21 16 580 +496
2018/12/20 16 084 +3 436
2018/12/19 12 648 -8 233
2018/12/18 20 881 +9 563
2018/12/17 11 318 -4 831
2018/12/16 16 149 -906
2018/12/15 17 055 +2 571
2018/12/14 14 484 -4 146
2018/12/13 18 630 -146
2018/12/12 18 776 +4 077
2018/12/11 14 699 -711
2018/12/10 15 410 -977
2018/12/09 16 387 -2 223
2018/12/08 18 610 +998
2018/12/07 17 612 +1 323
2018/12/06 16 289 +2 400
2018/12/05 13 889 -7 660
2018/12/04 21 549 +3 810
2018/12/03 17 739 +2 015
2018/12/02 15 724 +871
2018/12/01 14 853 -3 966
2018/11/30 18 819 +1 389
2018/11/29 17 430 -2 266
2018/11/28 19 696 -136
2018/11/27 19 832 +6 361
2018/11/26 13 471 +973
2018/11/25 12 498 -5 802
2018/11/24 18 300

WIDGET FOR YOUR SITE

DOMAINS WITH THE NEAREST RANK

Domain Rank
hotfiesta.tv 16 347
ni-vms.com 16 348
accesstrade.ne.jp 16 349
heasyspeedtest.co 16 350
cms.gov 16 351
allevents.in 16 352
iqilu.com 16 353
compul.in 16 354
serieslan.com 16 355
cnfol.com 16 356
forum.hr 16 357

DOMAINS WITH THE NEAREST RANK BY TLD .in

Domain Rank
hdwallpapers.in 15 206
peeplink.in 15 645
mygov.in 16 030
petrolpumpdealerchayan.in 16 212
syndicatebank.in 16 279
allevents.in 16 352
compul.in 16 354
watchlakorn.in 16 526
sportsguru.in 16 581
vikaspedia.in 16 640
thesmartshop.in 16 653